createdAt,value
2018-10-12T00:04:30.879Z,59.63
2018-10-12T00:09:25.014Z,59.71
2018-10-12T00:14:18.763Z,59.90
2018-10-12T00:19:12.441Z,59.42
2018-10-12T00:24:05.848Z,60.30
2018-10-12T00:28:59.303Z,61.50
2018-10-12T00:33:52.932Z,61.19
2018-10-12T00:38:50.066Z,59.87
2018-10-12T00:43:44.251Z,59.97
2018-10-12T00:48:37.871Z,59.96
2018-10-12T00:53:32.142Z,59.55
2018-10-12T00:58:26.311Z,59.48
2018-10-12T01:03:21.064Z,59.67
2018-10-12T01:08:14.687Z,59.67
2018-10-12T01:13:08.248Z,58.86
2018-10-12T01:18:02.026Z,58.64
2018-10-12T01:22:56.739Z,58.06
2018-10-12T01:27:50.718Z,57.62
2018-10-12T01:32:49.621Z,58.62
2018-10-12T01:37:43.550Z,58.52
2018-10-12T01:42:36.797Z,59.65
2018-10-12T01:47:30.179Z,59.69
2018-10-12T01:52:23.617Z,59.17
2018-10-12T01:57:18.191Z,59.14
2018-10-12T02:02:11.848Z,59.94
2018-10-12T02:07:05.818Z,60.23
2018-10-12T02:11:59.176Z,59.30
2018-10-12T02:16:52.731Z,61.30
2018-10-12T02:21:46.291Z,62.11
2018-10-12T02:26:39.609Z,62.36
2018-10-12T02:31:35.777Z,62.95
2018-10-12T02:36:30.136Z,62.99
2018-10-12T02:41:24.745Z,63.55
2018-10-12T02:46:18.743Z,61.66
2018-10-12T02:51:12.709Z,64.36
2018-10-12T02:56:06.836Z,64.66
2018-10-12T03:01:00.268Z,65.22
2018-10-12T03:05:54.117Z,65.39
2018-10-12T03:10:47.539Z,65.57
2018-10-12T03:15:40.916Z,64.89
2018-10-12T03:20:34.353Z,62.66
2018-10-12T03:25:28.173Z,64.14
2018-10-12T03:30:23.572Z,63.95
2018-10-12T03:35:18.933Z,63.52
2018-10-12T03:40:14.200Z,63.96
2018-10-12T03:45:08.506Z,63.46
2018-10-12T03:50:02.480Z,63.59
2018-10-12T03:55:00.413Z,62.74
2018-10-12T03:59:54.813Z,64.06
2018-10-12T04:04:48.235Z,63.59
2018-10-12T04:09:42.174Z,61.54
2018-10-12T04:14:35.696Z,62.06
2018-10-12T04:19:30.915Z,62.06
2018-10-12T04:24:25.034Z,61.73
2018-10-12T04:34:25.297Z,61.27
2018-10-12T04:39:29.744Z,62.01
2018-10-12T04:44:24.186Z,60.35
2018-10-12T04:49:17.908Z,61.30
2018-10-12T04:54:12.588Z,62.15
2018-10-12T04:59:06.128Z,62.02
2018-10-12T05:03:59.596Z,63.79
2018-10-12T05:08:53.028Z,64.33
2018-10-12T05:13:46.427Z,63.39
2018-10-12T05:18:40.268Z,63.42
2018-10-12T05:23:34.247Z,63.56
2018-10-12T05:28:28.499Z,63.18
2018-10-12T05:33:21.978Z,62.09
2018-10-12T05:38:15.422Z,62.94
2018-10-12T05:43:09.177Z,62.48
2018-10-12T05:48:13.701Z,62.02
2018-10-12T05:53:07.609Z,60.79
2018-10-12T05:58:01.616Z,60.67
2018-10-12T06:02:55.862Z,59.34
2018-10-12T06:07:49.893Z,58.11
2018-10-12T06:12:43.352Z,57.40
2018-10-12T06:17:37.244Z,58.06
2018-10-12T06:22:30.536Z,56.86
2018-10-12T06:27:24.510Z,55.80
2018-10-12T06:32:17.751Z,55.66
2018-10-12T06:37:11.117Z,58.21
2018-10-12T06:42:05.065Z,55.42
2018-10-12T06:46:58.308Z,57.19
2018-10-12T06:51:51.595Z,54.23
2018-10-12T06:56:46.740Z,52.85
2018-10-12T07:01:40.076Z,52.17
2018-10-12T07:06:33.793Z,52.40
2018-10-12T07:11:27.085Z,52.81
2018-10-12T07:16:20.432Z,52.63
2018-10-12T07:21:13.667Z,51.70
2018-10-12T07:26:06.971Z,53.65
2018-10-12T07:31:00.375Z,53.02
2018-10-12T07:35:53.743Z,53.41
2018-10-12T07:40:47.586Z,52.26
2018-10-12T07:45:40.757Z,52.91
2018-10-12T07:50:34.288Z,49.72
2018-10-12T07:55:27.427Z,49.32
2018-10-12T08:00:20.882Z,50.61
2018-10-12T08:05:14.015Z,50.89
2018-10-12T08:10:07.691Z,50.81
2018-10-12T08:15:01.148Z,50.30
2018-10-12T08:19:54.563Z,49.51
2018-10-12T08:24:47.891Z,49.20
2018-10-12T08:29:41.388Z,49.65
2018-10-12T08:34:34.578Z,50.33
2018-10-12T08:39:28.157Z,49.56
2018-10-12T08:44:21.395Z,49.86
2018-10-12T08:49:15.059Z,50.28
2018-10-12T08:54:09.040Z,49.45
2018-10-12T08:59:02.261Z,48.36
2018-10-12T09:03:55.592Z,48.00
2018-10-12T09:08:48.891Z,48.73
2018-10-12T09:13:42.268Z,47.68
2018-10-12T09:18:35.536Z,47.51
2018-10-12T09:23:28.976Z,46.93
2018-10-12T09:28:22.389Z,47.36
2018-10-12T09:33:15.563Z,46.94
2018-10-12T09:38:08.985Z,47.14
2018-10-12T09:43:02.657Z,47.53
2018-10-12T09:47:55.919Z,47.32
2018-10-12T09:52:49.261Z,47.29
2018-10-12T09:57:43.054Z,46.15
2018-10-12T10:02:42.059Z,46.27
2018-10-12T10:07:39.790Z,47.64
2018-10-12T10:12:33.784Z,47.36
2018-10-12T10:17:27.020Z,47.11
2018-10-12T10:22:20.402Z,47.00
2018-10-12T10:27:13.845Z,46.21
2018-10-12T10:32:07.195Z,45.75
2018-10-12T10:37:01.473Z,44.99
2018-10-12T10:41:55.103Z,45.33
2018-10-12T10:46:48.599Z,44.76
2018-10-12T10:51:42.535Z,44.21
2018-10-12T10:56:36.131Z,43.62
2018-10-12T11:01:29.336Z,45.11
2018-10-12T11:06:22.764Z,42.99
2018-10-12T11:11:16.020Z,42.41
2018-10-12T11:16:09.364Z,42.40
2018-10-12T11:21:02.548Z,43.12
2018-10-12T11:25:56.038Z,43.84
2018-10-12T11:30:49.308Z,44.29
2018-10-12T11:35:42.698Z,44.10
2018-10-12T11:40:35.951Z,44.12
2018-10-12T11:45:29.278Z,44.00
2018-10-12T11:50:23.677Z,44.39
2018-10-12T11:55:16.991Z,44.80
2018-10-12T12:00:10.871Z,44.80
2018-10-12T12:05:04.494Z,45.11
2018-10-12T12:09:57.693Z,45.55
2018-10-12T12:14:51.692Z,45.88
2018-10-12T12:19:45.005Z,46.15
2018-10-12T12:24:38.614Z,45.42
2018-10-12T12:29:31.904Z,46.12
2018-10-12T12:34:25.235Z,47.29
2018-10-12T12:39:18.439Z,47.83
2018-10-12T12:44:11.729Z,48.06
2018-10-12T12:49:05.754Z,48.22
2018-10-12T12:53:58.979Z,48.13
2018-10-12T12:58:53.597Z,47.75
2018-10-12T13:03:47.343Z,48.57
2018-10-12T13:08:41.903Z,48.83
2018-10-12T13:13:35.483Z,49.39
2018-10-12T13:18:28.928Z,48.67
2018-10-12T13:23:22.933Z,50.23
2018-10-12T13:28:17.709Z,50.03
2018-10-12T13:33:11.019Z,50.35
2018-10-12T13:38:04.382Z,50.44
2018-10-12T13:42:57.657Z,50.49
2018-10-12T13:47:51.769Z,50.36
2018-10-12T13:52:45.775Z,50.35
2018-10-12T13:57:39.073Z,50.40
2018-10-12T14:02:32.826Z,50.26
2018-10-12T14:07:26.214Z,50.45
2018-10-12T14:12:19.903Z,50.22
2018-10-12T14:17:13.627Z,50.88
2018-10-12T14:22:08.162Z,51.56
2018-10-12T14:27:01.616Z,51.69
2018-10-12T14:31:55.028Z,52.18
2018-10-12T14:36:48.360Z,51.94
2018-10-12T14:41:41.647Z,52.58
2018-10-12T14:46:35.258Z,53.05
2018-10-12T14:51:28.556Z,53.72
2018-10-12T14:56:21.919Z,53.86
2018-10-12T15:01:19.561Z,54.45
2018-10-12T15:06:13.128Z,54.49
2018-10-12T15:11:06.444Z,54.46
2018-10-12T15:16:00.297Z,54.97
2018-10-12T15:20:54.511Z,55.04
2018-10-12T15:25:47.980Z,54.72
2018-10-12T15:30:41.336Z,52.52
2018-10-12T15:35:34.711Z,52.06
2018-10-12T15:40:28.137Z,52.02
2018-10-12T15:45:22.094Z,51.39
2018-10-12T15:50:17.521Z,46.61
2018-10-12T15:55:13.030Z,51.74
2018-10-12T16:00:06.701Z,51.93
2018-10-12T16:05:00.610Z,46.95
2018-10-12T16:09:56.206Z,46.58
2018-10-12T16:14:49.685Z,45.07
2018-10-12T16:19:43.045Z,44.38
2018-10-12T16:24:36.589Z,44.32
2018-10-12T16:29:29.929Z,44.57
2018-10-12T16:34:23.487Z,45.10
2018-10-12T16:39:17.828Z,45.14
2018-10-12T16:44:11.366Z,47.05
2018-10-12T16:49:04.920Z,47.11
2018-10-12T16:53:58.822Z,47.78
2018-10-12T16:58:53.296Z,48.81
2018-10-12T17:03:46.909Z,49.47
2018-10-12T17:08:40.232Z,46.69
2018-10-12T17:13:33.701Z,47.61
2018-10-12T17:18:27.101Z,47.64
2018-10-12T17:23:20.591Z,48.53
2018-10-12T17:28:14.258Z,47.01
2018-10-12T17:33:07.918Z,48.33
2018-10-12T17:38:02.515Z,50.72
2018-10-12T17:42:56.100Z,45.97
2018-10-12T17:47:50.316Z,45.95
2018-10-12T17:52:44.219Z,46.70
2018-10-12T17:57:38.371Z,46.69
2018-10-12T18:02:32.144Z,45.92
2018-10-12T18:07:25.777Z,43.97
2018-10-12T18:12:19.553Z,43.32
2018-10-12T18:17:13.443Z,44.26
2018-10-12T18:22:06.977Z,43.64
2018-10-12T18:27:00.616Z,41.89
2018-10-12T18:31:54.941Z,42.60
2018-10-12T18:36:48.279Z,43.84
2018-10-12T18:41:42.838Z,42.31
2018-10-12T18:46:37.106Z,42.83
2018-10-12T18:51:30.763Z,43.31
2018-10-12T18:56:24.153Z,44.23
2018-10-12T19:01:18.144Z,42.94
2018-10-12T19:06:12.322Z,43.59
2018-10-12T19:11:06.049Z,44.20
2018-10-12T19:15:59.466Z,44.47
2018-10-12T19:20:55.213Z,43.61
2018-10-12T19:25:48.994Z,43.98
2018-10-12T19:30:42.958Z,43.96
2018-10-12T19:35:36.361Z,43.79
2018-10-12T19:40:31.046Z,44.02
2018-10-12T19:45:24.484Z,44.20
2018-10-12T19:50:18.241Z,44.48
2018-10-12T19:55:12.077Z,44.69
2018-10-12T20:00:05.883Z,44.45
2018-10-12T20:04:59.718Z,45.30
2018-10-12T20:09:53.396Z,44.53
2018-10-12T20:14:47.205Z,43.70
2018-10-12T20:19:40.871Z,44.13
2018-10-12T20:24:34.728Z,42.74
2018-10-12T20:29:28.087Z,43.03
2018-10-12T20:34:21.416Z,42.94
2018-10-12T20:39:15.345Z,42.42
2018-10-12T20:44:09.290Z,42.89
2018-10-12T20:49:02.678Z,42.36
2018-10-12T20:53:56.164Z,41.57
2018-10-12T20:58:49.789Z,41.85
2018-10-12T21:03:43.551Z,41.08
2018-10-12T21:08:36.986Z,41.33
2018-10-12T21:13:30.353Z,41.50
2018-10-12T21:18:24.330Z,41.45
2018-10-12T21:23:17.797Z,40.24
2018-10-12T21:28:11.136Z,40.52
2018-10-12T21:33:04.596Z,40.16
2018-10-12T21:37:59.270Z,40.87
2018-10-12T21:42:52.563Z,41.37
2018-10-12T21:47:45.971Z,41.14
2018-10-12T21:52:39.863Z,43.82
2018-10-12T21:57:33.233Z,41.80
2018-10-12T22:02:27.030Z,39.14
2018-10-12T22:07:21.194Z,38.01
2018-10-12T22:12:15.317Z,37.68
2018-10-12T22:17:08.886Z,37.69
2018-10-12T22:22:02.254Z,36.18
2018-10-12T22:26:55.619Z,35.92
2018-10-12T22:31:48.869Z,35.37
2018-10-12T22:36:42.549Z,34.94
2018-10-12T22:41:36.062Z,36.18
2018-10-12T22:46:29.374Z,36.29
2018-10-12T22:51:22.814Z,36.02
2018-10-12T22:56:16.121Z,39.80
2018-10-12T23:01:09.444Z,43.37
2018-10-12T23:06:02.887Z,44.42
2018-10-12T23:10:56.115Z,46.86
2018-10-12T23:15:49.473Z,44.06
2018-10-12T23:20:42.840Z,43.48
2018-10-12T23:25:36.211Z,44.28
2018-10-12T23:30:30.509Z,45.54
2018-10-12T23:35:24.289Z,44.20
2018-10-12T23:40:17.971Z,42.85
2018-10-12T23:45:11.365Z,43.15
2018-10-12T23:50:04.604Z,43.73
2018-10-12T23:54:57.897Z,45.02
2018-10-12T23:59:51.231Z,45.91
